sensor_id;sensor_type;location;lat;lon;timestamp;P1;durP1;ratioP1;P2;durP2;ratioP2
23884;SDS011;12123;53.088;7.392;2022-08-23T00:02:23;14.07;;;8.80;;
23884;SDS011;12123;53.088;7.392;2022-08-23T00:04:52;16.98;;;9.05;;
23884;SDS011;12123;53.088;7.392;2022-08-23T00:07:39;14.77;;;9.15;;
23884;SDS011;12123;53.088;7.392;2022-08-23T00:10:10;15.85;;;9.52;;
23884;SDS011;12123;53.088;7.392;2022-08-23T00:12:38;21.77;;;9.30;;
23884;SDS011;12123;53.088;7.392;2022-08-23T00:15:06;17.33;;;9.70;;
23884;SDS011;12123;53.088;7.392;2022-08-23T00:17:34;16.52;;;9.85;;
23884;SDS011;12123;53.088;7.392;2022-08-23T00:20:06;18.08;;;10.25;;
23884;SDS011;12123;53.088;7.392;2022-08-23T00:22:34;18.90;;;10.15;;
23884;SDS011;12123;53.088;7.392;2022-08-23T00:25:02;21.20;;;10.27;;
23884;SDS011;12123;53.088;7.392;2022-08-23T00:27:29;20.88;;;10.55;;
23884;SDS011;12123;53.088;7.392;2022-08-23T00:29:57;15.02;;;10.15;;
23884;SDS011;12123;53.088;7.392;2022-08-23T00:32:25;18.85;;;10.15;;
23884;SDS011;12123;53.088;7.392;2022-08-23T00:34:53;19.50;;;11.13;;
23884;SDS011;12123;53.088;7.392;2022-08-23T00:37:20;16.73;;;10.68;;
23884;SDS011;12123;53.088;7.392;2022-08-23T00:39:48;16.38;;;10.77;;
23884;SDS011;12123;53.088;7.392;2022-08-23T00:42:25;13.95;;;10.73;;
23884;SDS011;12123;53.088;7.392;2022-08-23T00:45:12;19.85;;;11.55;;
23884;SDS011;12123;53.088;7.392;2022-08-23T00:48:01;16.27;;;9.98;;
23884;SDS011;12123;53.088;7.392;2022-08-23T00:55:27;14.77;;;10.43;;
23884;SDS011;12123;53.088;7.392;2022-08-23T00:57:54;20.08;;;10.23;;
23884;SDS011;12123;53.088;7.392;2022-08-23T01:00:22;15.18;;;10.32;;
23884;SDS011;12123;53.088;7.392;2022-08-23T01:02:50;14.60;;;10.30;;
23884;SDS011;12123;53.088;7.392;2022-08-23T01:05:18;15.23;;;10.38;;
23884;SDS011;12123;53.088;7.392;2022-08-23T01:07:50;17.52;;;10.05;;
23884;SDS011;12123;53.088;7.392;2022-08-23T01:10:26;19.15;;;10.73;;
23884;SDS011;12123;53.088;7.392;2022-08-23T01:12:59;21.65;;;11.45;;
23884;SDS011;12123;53.088;7.392;2022-08-23T01:15:35;14.50;;;10.55;;
23884;SDS011;12123;53.088;7.392;2022-08-23T01:18:07;15.63;;;10.70;;
23884;SDS011;12123;53.088;7.392;2022-08-23T01:20:40;20.35;;;10.50;;
23884;SDS011;12123;53.088;7.392;2022-08-23T01:25:43;17.55;;;10.25;;
23884;SDS011;12123;53.088;7.392;2022-08-23T01:28:10;17.27;;;10.70;;
23884;SDS011;12123;53.088;7.392;2022-08-23T01:30:37;19.95;;;11.38;;
23884;SDS011;12123;53.088;7.392;2022-08-23T01:33:07;16.02;;;10.15;;
23884;SDS011;12123;53.088;7.392;2022-08-23T01:35:45;19.77;;;11.40;;
23884;SDS011;12123;53.088;7.392;2022-08-23T01:38:13;16.88;;;11.15;;
23884;SDS011;12123;53.088;7.392;2022-08-23T01:40:41;17.10;;;10.52;;
23884;SDS011;12123;53.088;7.392;2022-08-23T01:43:09;15.93;;;10.43;;
23884;SDS011;12123;53.088;7.392;2022-08-23T01:45:39;16.20;;;10.55;;
23884;SDS011;12123;53.088;7.392;2022-08-23T01:48:06;16.17;;;11.18;;
23884;SDS011;12123;53.088;7.392;2022-08-23T01:50:33;17.55;;;12.23;;
23884;SDS011;12123;53.088;7.392;2022-08-23T01:53:06;16.27;;;11.57;;
23884;SDS011;12123;53.088;7.392;2022-08-23T01:55:34;16.38;;;12.20;;
23884;SDS011;12123;53.088;7.392;2022-08-23T01:58:01;16.00;;;12.15;;
23884;SDS011;12123;53.088;7.392;2022-08-23T02:00:33;18.17;;;11.60;;
23884;SDS011;12123;53.088;7.392;2022-08-23T02:03:01;22.13;;;13.27;;
23884;SDS011;12123;53.088;7.392;2022-08-23T02:05:29;21.65;;;11.68;;
23884;SDS011;12123;53.088;7.392;2022-08-23T02:07:56;16.58;;;11.45;;
23884;SDS011;12123;53.088;7.392;2022-08-23T02:10:44;16.80;;;11.55;;
23884;SDS011;12123;53.088;7.392;2022-08-23T02:13:11;18.27;;;12.48;;
23884;SDS011;12123;53.088;7.392;2022-08-23T02:15:40;16.70;;;12.23;;
23884;SDS011;12123;53.088;7.392;2022-08-23T02:18:09;19.17;;;12.50;;
23884;SDS011;12123;53.088;7.392;2022-08-23T02:20:48;17.52;;;12.40;;
23884;SDS011;12123;53.088;7.392;2022-08-23T02:23:16;21.05;;;13.30;;
23884;SDS011;12123;53.088;7.392;2022-08-23T02:25:43;16.42;;;12.95;;
23884;SDS011;12123;53.088;7.392;2022-08-23T02:28:12;17.88;;;11.77;;
23884;SDS011;12123;53.088;7.392;2022-08-23T02:30:40;15.52;;;12.32;;
23884;SDS011;12123;53.088;7.392;2022-08-23T02:33:07;16.70;;;12.82;;
23884;SDS011;12123;53.088;7.392;2022-08-23T02:35:35;18.88;;;13.43;;
23884;SDS011;12123;53.088;7.392;2022-08-23T02:38:07;19.10;;;12.15;;
23884;SDS011;12123;53.088;7.392;2022-08-23T02:40:35;18.80;;;13.07;;
23884;SDS011;12123;53.088;7.392;2022-08-23T02:43:03;22.60;;;14.27;;
23884;SDS011;12123;53.088;7.392;2022-08-23T02:45:31;21.42;;;14.25;;
23884;SDS011;12123;53.088;7.392;2022-08-23T02:47:58;17.42;;;13.98;;
23884;SDS011;12123;53.088;7.392;2022-08-23T02:50:27;16.75;;;13.00;;
23884;SDS011;12123;53.088;7.392;2022-08-23T02:52:54;18.73;;;13.25;;
23884;SDS011;12123;53.088;7.392;2022-08-23T02:55:23;19.92;;;12.98;;
23884;SDS011;12123;53.088;7.392;2022-08-23T02:57:50;21.80;;;14.13;;
23884;SDS011;12123;53.088;7.392;2022-08-23T03:00:19;20.95;;;13.55;;
23884;SDS011;12123;53.088;7.392;2022-08-23T03:02:47;25.38;;;14.45;;
23884;SDS011;12123;53.088;7.392;2022-08-23T03:05:14;19.90;;;13.60;;
23884;SDS011;12123;53.088;7.392;2022-08-23T03:07:42;21.40;;;14.07;;
23884;SDS011;12123;53.088;7.392;2022-08-23T03:10:09;21.00;;;13.85;;
23884;SDS011;12123;53.088;7.392;2022-08-23T03:12:37;18.15;;;13.48;;
23884;SDS011;12123;53.088;7.392;2022-08-23T03:15:04;22.60;;;14.15;;
23884;SDS011;12123;53.088;7.392;2022-08-23T03:17:33;23.13;;;15.10;;
23884;SDS011;12123;53.088;7.392;2022-08-23T03:20:00;22.42;;;15.70;;
23884;SDS011;12123;53.088;7.392;2022-08-23T03:22:27;21.73;;;15.32;;
23884;SDS011;12123;53.088;7.392;2022-08-23T03:24:54;18.30;;;13.23;;
23884;SDS011;12123;53.088;7.392;2022-08-23T03:27:22;22.42;;;14.52;;
23884;SDS011;12123;53.088;7.392;2022-08-23T03:29:49;22.40;;;14.63;;
23884;SDS011;12123;53.088;7.392;2022-08-23T03:32:16;22.83;;;16.67;;
23884;SDS011;12123;53.088;7.392;2022-08-23T03:34:44;24.33;;;17.45;;
23884;SDS011;12123;53.088;7.392;2022-08-23T03:37:11;18.85;;;15.73;;
23884;SDS011;12123;53.088;7.392;2022-08-23T03:39:38;24.52;;;15.52;;
23884;SDS011;12123;53.088;7.392;2022-08-23T03:42:05;18.10;;;15.50;;
23884;SDS011;12123;53.088;7.392;2022-08-23T03:44:33;25.20;;;16.35;;
23884;SDS011;12123;53.088;7.392;2022-08-23T03:47:00;23.77;;;16.52;;
23884;SDS011;12123;53.088;7.392;2022-08-23T03:49:27;20.42;;;16.90;;
23884;SDS011;12123;53.088;7.392;2022-08-23T03:51:54;24.13;;;16.80;;
23884;SDS011;12123;53.088;7.392;2022-08-23T03:54:21;19.67;;;17.40;;
23884;SDS011;12123;53.088;7.392;2022-08-23T03:56:49;24.13;;;17.35;;
23884;SDS011;12123;53.088;7.392;2022-08-23T03:59:17;22.42;;;17.40;;
23884;SDS011;12123;53.088;7.392;2022-08-23T04:01:44;20.15;;;16.17;;
23884;SDS011;12123;53.088;7.392;2022-08-23T04:04:11;22.40;;;16.60;;
23884;SDS011;12123;53.088;7.392;2022-08-23T04:06:39;23.35;;;17.73;;
23884;SDS011;12123;53.088;7.392;2022-08-23T04:09:06;20.10;;;16.98;;
23884;SDS011;12123;53.088;7.392;2022-08-23T04:11:34;20.45;;;16.92;;
23884;SDS011;12123;53.088;7.392;2022-08-23T04:14:01;23.58;;;17.13;;
23884;SDS011;12123;53.088;7.392;2022-08-23T04:16:28;22.42;;;17.08;;
23884;SDS011;12123;53.088;7.392;2022-08-23T04:19:02;20.50;;;15.95;;
23884;SDS011;12123;53.088;7.392;2022-08-23T04:21:30;20.52;;;17.75;;
23884;SDS011;12123;53.088;7.392;2022-08-23T04:23:57;24.67;;;17.08;;
23884;SDS011;12123;53.088;7.392;2022-08-23T04:26:25;24.67;;;18.17;;
23884;SDS011;12123;53.088;7.392;2022-08-23T04:28:55;23.92;;;17.38;;
23884;SDS011;12123;53.088;7.392;2022-08-23T04:31:22;21.17;;;15.93;;
23884;SDS011;12123;53.088;7.392;2022-08-23T04:33:52;22.70;;;17.10;;
23884;SDS011;12123;53.088;7.392;2022-08-23T04:36:19;21.88;;;16.90;;
23884;SDS011;12123;53.088;7.392;2022-08-23T04:38:48;20.67;;;16.90;;
23884;SDS011;12123;53.088;7.392;2022-08-23T04:41:16;19.85;;;16.45;;
23884;SDS011;12123;53.088;7.392;2022-08-23T04:46:30;28.52;;;16.70;;
23884;SDS011;12123;53.088;7.392;2022-08-23T04:48:57;20.58;;;15.82;;
23884;SDS011;12123;53.088;7.392;2022-08-23T04:51:25;19.83;;;16.25;;
23884;SDS011;12123;53.088;7.392;2022-08-23T04:53:53;21.35;;;15.70;;
23884;SDS011;12123;53.088;7.392;2022-08-23T04:56:21;18.98;;;15.57;;
23884;SDS011;12123;53.088;7.392;2022-08-23T04:58:51;23.15;;;16.73;;
23884;SDS011;12123;53.088;7.392;2022-08-23T05:01:18;19.92;;;15.63;;
23884;SDS011;12123;53.088;7.392;2022-08-23T05:03:45;22.95;;;15.48;;
23884;SDS011;12123;53.088;7.392;2022-08-23T05:06:13;24.67;;;15.68;;
23884;SDS011;12123;53.088;7.392;2022-08-23T05:08:40;20.98;;;15.55;;
23884;SDS011;12123;53.088;7.392;2022-08-23T05:11:08;18.17;;;14.57;;
23884;SDS011;12123;53.088;7.392;2022-08-23T05:13:36;19.02;;;14.68;;
23884;SDS011;12123;53.088;7.392;2022-08-23T05:16:04;19.88;;;14.35;;
23884;SDS011;12123;53.088;7.392;2022-08-23T05:18:31;14.77;;;12.65;;
23884;SDS011;12123;53.088;7.392;2022-08-23T05:20:59;17.00;;;13.25;;
23884;SDS011;12123;53.088;7.392;2022-08-23T05:23:26;16.77;;;13.25;;
23884;SDS011;12123;53.088;7.392;2022-08-23T05:25:57;18.48;;;13.48;;
23884;SDS011;12123;53.088;7.392;2022-08-23T05:28:28;18.00;;;13.05;;
23884;SDS011;12123;53.088;7.392;2022-08-23T05:31:01;13.10;;;11.70;;
23884;SDS011;12123;53.088;7.392;2022-08-23T05:33:37;15.80;;;11.20;;
23884;SDS011;12123;53.088;7.392;2022-08-23T05:36:05;14.02;;;11.50;;
23884;SDS011;12123;53.088;7.392;2022-08-23T05:38:33;17.42;;;10.43;;
23884;SDS011;12123;53.088;7.392;2022-08-23T05:41:00;17.30;;;11.05;;
23884;SDS011;12123;53.088;7.392;2022-08-23T05:43:32;11.88;;;9.30;;
23884;SDS011;12123;53.088;7.392;2022-08-23T05:48:45;13.30;;;10.13;;
23884;SDS011;12123;53.088;7.392;2022-08-23T05:51:17;14.82;;;8.43;;
23884;SDS011;12123;53.088;7.392;2022-08-23T05:53:52;11.65;;;8.90;;
23884;SDS011;12123;53.088;7.392;2022-08-23T05:56:26;13.57;;;7.55;;
23884;SDS011;12123;53.088;7.392;2022-08-23T05:58:55;11.18;;;8.30;;
23884;SDS011;12123;53.088;7.392;2022-08-23T06:01:25;9.55;;;7.35;;
23884;SDS011;12123;53.088;7.392;2022-08-23T06:03:54;14.90;;;7.50;;
23884;SDS011;12123;53.088;7.392;2022-08-23T06:06:23;10.57;;;6.72;;
23884;SDS011;12123;53.088;7.392;2022-08-23T06:09:03;10.90;;;6.07;;
23884;SDS011;12123;53.088;7.392;2022-08-23T06:11:33;9.98;;;6.13;;
23884;SDS011;12123;53.088;7.392;2022-08-23T06:14:01;12.38;;;5.95;;
23884;SDS011;12123;53.088;7.392;2022-08-23T06:16:32;7.40;;;5.78;;
23884;SDS011;12123;53.088;7.392;2022-08-23T06:19:00;12.38;;;5.70;;
23884;SDS011;12123;53.088;7.392;2022-08-23T06:21:28;10.50;;;5.13;;
23884;SDS011;12123;53.088;7.392;2022-08-23T06:23:56;11.20;;;5.13;;
23884;SDS011;12123;53.088;7.392;2022-08-23T06:26:27;9.98;;;5.07;;
23884;SDS011;12123;53.088;7.392;2022-08-23T06:28:59;8.93;;;4.85;;
23884;SDS011;12123;53.088;7.392;2022-08-23T06:31:29;8.93;;;4.57;;
23884;SDS011;12123;53.088;7.392;2022-08-23T06:36:50;8.27;;;4.85;;
23884;SDS011;12123;53.088;7.392;2022-08-23T06:39:21;7.57;;;4.68;;
23884;SDS011;12123;53.088;7.392;2022-08-23T06:41:51;10.95;;;4.40;;
23884;SDS011;12123;53.088;7.392;2022-08-23T06:44:18;11.25;;;4.40;;
23884;SDS011;12123;53.088;7.392;2022-08-23T06:46:45;7.90;;;4.45;;
23884;SDS011;12123;53.088;7.392;2022-08-23T06:49:14;6.38;;;4.32;;
23884;SDS011;12123;53.088;7.392;2022-08-23T06:51:43;9.10;;;4.78;;
23884;SDS011;12123;53.088;7.392;2022-08-23T06:54:14;10.23;;;4.53;;
23884;SDS011;12123;53.088;7.392;2022-08-23T06:56:42;10.68;;;4.53;;
23884;SDS011;12123;53.088;7.392;2022-08-23T06:59:09;6.28;;;4.00;;
23884;SDS011;12123;53.088;7.392;2022-08-23T07:01:41;11.85;;;4.30;;
23884;SDS011;12123;53.088;7.392;2022-08-23T07:04:13;7.85;;;4.28;;
23884;SDS011;12123;53.088;7.392;2022-08-23T07:06:41;10.57;;;3.95;;
23884;SDS011;12123;53.088;7.392;2022-08-23T07:09:08;7.32;;;3.97;;
23884;SDS011;12123;53.088;7.392;2022-08-23T07:11:37;8.93;;;4.00;;
23884;SDS011;12123;53.088;7.392;2022-08-23T07:14:06;9.98;;;3.90;;
23884;SDS011;12123;53.088;7.392;2022-08-23T07:16:43;11.13;;;4.07;;
23884;SDS011;12123;53.088;7.392;2022-08-23T07:19:13;7.88;;;4.10;;
23884;SDS011;12123;53.088;7.392;2022-08-23T07:21:41;7.75;;;3.90;;
23884;SDS011;12123;53.088;7.392;2022-08-23T07:24:14;7.93;;;3.53;;
23884;SDS011;12123;53.088;7.392;2022-08-23T07:26:42;4.28;;;3.35;;
23884;SDS011;12123;53.088;7.392;2022-08-23T07:29:10;11.65;;;3.70;;
23884;SDS011;12123;53.088;7.392;2022-08-23T07:31:39;7.97;;;3.72;;
23884;SDS011;12123;53.088;7.392;2022-08-23T07:34:08;10.57;;;3.38;;
23884;SDS011;12123;53.088;7.392;2022-08-23T07:36:36;9.65;;;3.65;;
23884;SDS011;12123;53.088;7.392;2022-08-23T07:39:06;6.20;;;3.45;;
23884;SDS011;12123;53.088;7.392;2022-08-23T07:41:35;5.85;;;3.30;;
23884;SDS011;12123;53.088;7.392;2022-08-23T07:44:05;6.22;;;3.25;;
23884;SDS011;12123;53.088;7.392;2022-08-23T07:46:35;6.57;;;3.30;;
23884;SDS011;12123;53.088;7.392;2022-08-23T07:49:03;6.82;;;3.03;;
23884;SDS011;12123;53.088;7.392;2022-08-23T07:51:32;8.73;;;3.45;;
23884;SDS011;12123;53.088;7.392;2022-08-23T07:54:00;5.43;;;2.95;;
23884;SDS011;12123;53.088;7.392;2022-08-23T07:56:29;7.45;;;2.88;;
23884;SDS011;12123;53.088;7.392;2022-08-23T07:58:56;6.57;;;3.05;;
23884;SDS011;12123;53.088;7.392;2022-08-23T08:01:24;12.60;;;4.35;;
23884;SDS011;12123;53.088;7.392;2022-08-23T08:03:53;5.97;;;3.22;;
23884;SDS011;12123;53.088;7.392;2022-08-23T08:06:29;8.63;;;3.33;;
23884;SDS011;12123;53.088;7.392;2022-08-23T08:08:57;6.15;;;3.05;;
23884;SDS011;12123;53.088;7.392;2022-08-23T08:11:26;7.68;;;2.72;;
23884;SDS011;12123;53.088;7.392;2022-08-23T08:14:01;6.88;;;2.90;;
23884;SDS011;12123;53.088;7.392;2022-08-23T08:16:29;7.93;;;3.03;;
23884;SDS011;12123;53.088;7.392;2022-08-23T08:18:57;10.07;;;3.10;;
23884;SDS011;12123;53.088;7.392;2022-08-23T08:21:25;7.05;;;2.80;;
23884;SDS011;12123;53.088;7.392;2022-08-23T08:23:53;5.78;;;2.53;;
23884;SDS011;12123;53.088;7.392;2022-08-23T08:26:21;5.88;;;2.40;;
23884;SDS011;12123;53.088;7.392;2022-08-23T08:28:50;7.32;;;2.83;;
23884;SDS011;12123;53.088;7.392;2022-08-23T08:31:17;6.20;;;2.38;;
23884;SDS011;12123;53.088;7.392;2022-08-23T08:33:44;7.03;;;2.30;;
23884;SDS011;12123;53.088;7.392;2022-08-23T08:39:17;7.13;;;2.10;;
23884;SDS011;12123;53.088;7.392;2022-08-23T08:47:05;6.10;;;2.35;;
23884;SDS011;12123;53.088;7.392;2022-08-23T08:49:41;10.30;;;2.60;;
23884;SDS011;12123;53.088;7.392;2022-08-23T08:54:47;6.97;;;2.30;;
23884;SDS011;12123;53.088;7.392;2022-08-23T08:57:18;6.57;;;2.35;;
23884;SDS011;12123;53.088;7.392;2022-08-23T08:59:59;6.68;;;2.28;;
23884;SDS011;12123;53.088;7.392;2022-08-23T09:02:29;6.38;;;2.30;;
23884;SDS011;12123;53.088;7.392;2022-08-23T09:05:00;8.63;;;2.47;;
23884;SDS011;12123;53.088;7.392;2022-08-23T09:12:27;5.93;;;2.67;;
23884;SDS011;12123;53.088;7.392;2022-08-23T09:20:05;9.57;;;2.28;;
23884;SDS011;12123;53.088;7.392;2022-08-23T09:22:40;6.43;;;2.42;;
23884;SDS011;12123;53.088;7.392;2022-08-23T09:25:09;6.20;;;2.53;;
23884;SDS011;12123;53.088;7.392;2022-08-23T09:27:38;5.03;;;2.28;;
23884;SDS011;12123;53.088;7.392;2022-08-23T09:30:06;5.25;;;2.13;;
23884;SDS011;12123;53.088;7.392;2022-08-23T09:32:35;9.88;;;1.75;;
23884;SDS011;12123;53.088;7.392;2022-08-23T09:38:14;5.10;;;2.17;;
23884;SDS011;12123;53.088;7.392;2022-08-23T09:40:44;4.30;;;1.95;;
23884;SDS011;12123;53.088;7.392;2022-08-23T09:43:13;6.10;;;2.10;;
23884;SDS011;12123;53.088;7.392;2022-08-23T09:48:30;3.67;;;1.92;;
23884;SDS011;12123;53.088;7.392;2022-08-23T09:51:03;6.05;;;1.90;;
23884;SDS011;12123;53.088;7.392;2022-08-23T09:53:31;6.97;;;2.40;;
23884;SDS011;12123;53.088;7.392;2022-08-23T09:56:12;4.07;;;2.28;;
23884;SDS011;12123;53.088;7.392;2022-08-23T09:58:42;5.45;;;2.00;;
23884;SDS011;12123;53.088;7.392;2022-08-23T10:04:15;4.13;;;2.28;;
23884;SDS011;12123;53.088;7.392;2022-08-23T10:09:21;4.32;;;2.33;;
23884;SDS011;12123;53.088;7.392;2022-08-23T10:11:49;4.60;;;1.98;;
23884;SDS011;12123;53.088;7.392;2022-08-23T10:14:17;4.47;;;1.90;;
23884;SDS011;12123;53.088;7.392;2022-08-23T10:24:46;4.30;;;1.85;;
23884;SDS011;12123;53.088;7.392;2022-08-23T10:27:17;7.75;;;2.20;;
23884;SDS011;12123;53.088;7.392;2022-08-23T10:30:10;5.05;;;2.00;;
23884;SDS011;12123;53.088;7.392;2022-08-23T10:35:45;8.35;;;2.35;;
23884;SDS011;12123;53.088;7.392;2022-08-23T10:38:33;5.25;;;1.90;;
23884;SDS011;12123;53.088;7.392;2022-08-23T10:46:19;5.18;;;2.10;;
23884;SDS011;12123;53.088;7.392;2022-08-23T10:48:54;9.00;;;2.58;;
23884;SDS011;12123;53.088;7.392;2022-08-23T10:51:24;4.82;;;2.33;;
23884;SDS011;12123;53.088;7.392;2022-08-23T10:54:12;4.90;;;1.95;;
23884;SDS011;12123;53.088;7.392;2022-08-23T10:56:43;3.17;;;2.05;;
23884;SDS011;12123;53.088;7.392;2022-08-23T10:59:17;3.05;;;1.65;;
23884;SDS011;12123;53.088;7.392;2022-08-23T11:01:49;4.25;;;2.20;;
23884;SDS011;12123;53.088;7.392;2022-08-23T11:04:29;3.35;;;1.70;;
23884;SDS011;12123;53.088;7.392;2022-08-23T11:07:00;3.83;;;1.77;;
23884;SDS011;12123;53.088;7.392;2022-08-23T11:09:47;5.13;;;2.28;;
23884;SDS011;12123;53.088;7.392;2022-08-23T11:12:24;5.90;;;2.10;;
23884;SDS011;12123;53.088;7.392;2022-08-23T11:17:24;6.60;;;2.15;;
23884;SDS011;12123;53.088;7.392;2022-08-23T11:19:53;9.38;;;1.88;;
23884;SDS011;12123;53.088;7.392;2022-08-23T11:22:28;4.68;;;1.80;;
23884;SDS011;12123;53.088;7.392;2022-08-23T11:29:53;4.97;;;2.20;;
23884;SDS011;12123;53.088;7.392;2022-08-23T11:35:00;3.85;;;1.67;;
23884;SDS011;12123;53.088;7.392;2022-08-23T11:37:47;5.47;;;2.08;;
23884;SDS011;12123;53.088;7.392;2022-08-23T11:40:15;5.40;;;1.73;;
23884;SDS011;12123;53.088;7.392;2022-08-23T11:43:02;7.47;;;2.20;;
23884;SDS011;12123;53.088;7.392;2022-08-23T11:50:44;3.85;;;2.05;;
23884;SDS011;12123;53.088;7.392;2022-08-23T12:01:34;5.30;;;1.85;;
23884;SDS011;12123;53.088;7.392;2022-08-23T12:04:06;3.85;;;2.20;;
23884;SDS011;12123;53.088;7.392;2022-08-23T12:06:41;5.68;;;2.22;;
23884;SDS011;12123;53.088;7.392;2022-08-23T12:14:30;4.28;;;1.95;;
23884;SDS011;12123;53.088;7.392;2022-08-23T12:19:41;5.68;;;2.15;;
23884;SDS011;12123;53.088;7.392;2022-08-23T12:22:13;5.15;;;2.10;;
23884;SDS011;12123;53.088;7.392;2022-08-23T12:29:48;7.65;;;2.20;;
23884;SDS011;12123;53.088;7.392;2022-08-23T12:32:25;3.67;;;1.80;;
23884;SDS011;12123;53.088;7.392;2022-08-23T12:35:05;5.40;;;1.85;;
23884;SDS011;12123;53.088;7.392;2022-08-23T12:37:44;5.60;;;2.28;;
23884;SDS011;12123;53.088;7.392;2022-08-23T12:40:21;3.58;;;1.75;;
23884;SDS011;12123;53.088;7.392;2022-08-23T12:42:48;6.35;;;1.70;;
23884;SDS011;12123;53.088;7.392;2022-08-23T12:45:17;4.07;;;2.10;;
23884;SDS011;12123;53.088;7.392;2022-08-23T12:47:54;3.60;;;1.85;;
23884;SDS011;12123;53.088;7.392;2022-08-23T12:50:38;5.72;;;2.05;;
23884;SDS011;12123;53.088;7.392;2022-08-23T12:53:07;5.43;;;1.90;;
23884;SDS011;12123;53.088;7.392;2022-08-23T12:55:42;7.65;;;2.20;;
23884;SDS011;12123;53.088;7.392;2022-08-23T12:58:10;3.50;;;1.60;;
23884;SDS011;12123;53.088;7.392;2022-08-23T13:00:38;5.38;;;1.90;;
23884;SDS011;12123;53.088;7.392;2022-08-23T13:03:13;4.63;;;2.28;;
23884;SDS011;12123;53.088;7.392;2022-08-23T13:05:55;4.17;;;2.03;;
23884;SDS011;12123;53.088;7.392;2022-08-23T13:08:37;4.97;;;1.88;;
23884;SDS011;12123;53.088;7.392;2022-08-23T13:11:05;4.18;;;1.92;;
23884;SDS011;12123;53.088;7.392;2022-08-23T13:13:35;7.53;;;2.20;;
23884;SDS011;12123;53.088;7.392;2022-08-23T13:16:21;3.67;;;2.15;;
23884;SDS011;12123;53.088;7.392;2022-08-23T13:18:52;4.03;;;2.00;;
23884;SDS011;12123;53.088;7.392;2022-08-23T13:23:52;6.72;;;1.92;;
23884;SDS011;12123;53.088;7.392;2022-08-23T13:26:43;3.90;;;1.83;;
23884;SDS011;12123;53.088;7.392;2022-08-23T13:34:35;70.68;;;13.50;;
23884;SDS011;12123;53.088;7.392;2022-08-23T13:37:08;3.47;;;1.90;;
23884;SDS011;12123;53.088;7.392;2022-08-23T13:39:43;5.57;;;1.73;;
23884;SDS011;12123;53.088;7.392;2022-08-23T13:42:10;5.22;;;2.30;;
23884;SDS011;12123;53.088;7.392;2022-08-23T13:44:38;5.07;;;2.05;;
23884;SDS011;12123;53.088;7.392;2022-08-23T13:47:05;7.47;;;2.05;;
23884;SDS011;12123;53.088;7.392;2022-08-23T13:49:34;3.65;;;2.28;;
23884;SDS011;12123;53.088;7.392;2022-08-23T13:52:04;7.35;;;2.17;;
23884;SDS011;12123;53.088;7.392;2022-08-23T13:54:53;4.93;;;2.20;;
23884;SDS011;12123;53.088;7.392;2022-08-23T13:57:20;3.88;;;2.10;;
23884;SDS011;12123;53.088;7.392;2022-08-23T13:59:52;7.13;;;2.20;;
23884;SDS011;12123;53.088;7.392;2022-08-23T14:02:20;4.05;;;2.10;;
23884;SDS011;12123;53.088;7.392;2022-08-23T14:04:48;7.90;;;1.90;;
23884;SDS011;12123;53.088;7.392;2022-08-23T14:07:15;4.45;;;2.10;;
23884;SDS011;12123;53.088;7.392;2022-08-23T14:09:43;10.02;;;2.42;;
23884;SDS011;12123;53.088;7.392;2022-08-23T14:12:11;6.75;;;2.00;;
23884;SDS011;12123;53.088;7.392;2022-08-23T14:14:40;5.40;;;2.70;;
23884;SDS011;12123;53.088;7.392;2022-08-23T14:17:08;6.95;;;2.55;;
23884;SDS011;12123;53.088;7.392;2022-08-23T14:19:41;10.43;;;2.60;;
23884;SDS011;12123;53.088;7.392;2022-08-23T14:22:31;5.00;;;2.33;;
23884;SDS011;12123;53.088;7.392;2022-08-23T14:24:59;5.20;;;2.40;;
23884;SDS011;12123;53.088;7.392;2022-08-23T14:27:26;3.13;;;2.17;;
23884;SDS011;12123;53.088;7.392;2022-08-23T14:29:53;5.90;;;2.22;;
23884;SDS011;12123;53.088;7.392;2022-08-23T14:32:21;5.45;;;2.03;;
23884;SDS011;12123;53.088;7.392;2022-08-23T14:34:48;8.82;;;2.42;;
23884;SDS011;12123;53.088;7.392;2022-08-23T14:37:15;4.13;;;2.35;;
23884;SDS011;12123;53.088;7.392;2022-08-23T14:40:03;3.35;;;2.20;;
23884;SDS011;12123;53.088;7.392;2022-08-23T14:42:31;3.72;;;1.90;;
23884;SDS011;12123;53.088;7.392;2022-08-23T14:44:58;3.42;;;2.22;;
23884;SDS011;12123;53.088;7.392;2022-08-23T14:47:25;4.57;;;2.30;;
23884;SDS011;12123;53.088;7.392;2022-08-23T14:49:53;5.07;;;1.92;;
23884;SDS011;12123;53.088;7.392;2022-08-23T14:52:20;5.70;;;2.28;;
23884;SDS011;12123;53.088;7.392;2022-08-23T14:54:48;5.32;;;2.20;;
23884;SDS011;12123;53.088;7.392;2022-08-23T14:57:16;4.47;;;2.45;;
23884;SDS011;12123;53.088;7.392;2022-08-23T14:59:43;5.18;;;2.35;;
23884;SDS011;12123;53.088;7.392;2022-08-23T15:02:11;4.60;;;2.42;;
23884;SDS011;12123;53.088;7.392;2022-08-23T15:04:39;4.97;;;2.50;;
23884;SDS011;12123;53.088;7.392;2022-08-23T15:07:07;5.18;;;2.50;;
23884;SDS011;12123;53.088;7.392;2022-08-23T15:09:45;4.15;;;2.28;;
23884;SDS011;12123;53.088;7.392;2022-08-23T15:12:12;9.68;;;2.50;;
23884;SDS011;12123;53.088;7.392;2022-08-23T15:14:59;8.52;;;2.67;;
23884;SDS011;12123;53.088;7.392;2022-08-23T15:17:27;7.63;;;3.28;;
23884;SDS011;12123;53.088;7.392;2022-08-23T15:19:57;7.55;;;2.88;;
23884;SDS011;12123;53.088;7.392;2022-08-23T15:22:24;5.18;;;2.30;;
23884;SDS011;12123;53.088;7.392;2022-08-23T15:24:51;6.32;;;2.35;;
23884;SDS011;12123;53.088;7.392;2022-08-23T15:27:19;5.22;;;2.53;;
23884;SDS011;12123;53.088;7.392;2022-08-23T15:29:47;6.38;;;2.67;;
23884;SDS011;12123;53.088;7.392;2022-08-23T15:32:14;5.05;;;2.55;;
23884;SDS011;12123;53.088;7.392;2022-08-23T15:34:47;7.97;;;2.70;;
23884;SDS011;12123;53.088;7.392;2022-08-23T15:37:16;7.15;;;2.40;;
23884;SDS011;12123;53.088;7.392;2022-08-23T15:39:43;9.27;;;2.45;;
23884;SDS011;12123;53.088;7.392;2022-08-23T15:42:11;6.30;;;2.42;;
23884;SDS011;12123;53.088;7.392;2022-08-23T15:44:45;4.87;;;3.00;;
23884;SDS011;12123;53.088;7.392;2022-08-23T15:47:16;3.50;;;2.60;;
23884;SDS011;12123;53.088;7.392;2022-08-23T15:49:44;4.57;;;2.47;;
23884;SDS011;12123;53.088;7.392;2022-08-23T15:52:11;7.40;;;2.72;;
23884;SDS011;12123;53.088;7.392;2022-08-23T15:54:38;6.47;;;2.40;;
23884;SDS011;12123;53.088;7.392;2022-08-23T15:57:06;4.10;;;2.60;;
23884;SDS011;12123;53.088;7.392;2022-08-23T15:59:35;7.53;;;2.45;;
23884;SDS011;12123;53.088;7.392;2022-08-23T16:02:02;5.82;;;2.67;;
23884;SDS011;12123;53.088;7.392;2022-08-23T16:04:30;3.97;;;2.50;;
23884;SDS011;12123;53.088;7.392;2022-08-23T16:07:03;6.75;;;3.22;;
23884;SDS011;12123;53.088;7.392;2022-08-23T16:09:30;7.35;;;3.53;;
23884;SDS011;12123;53.088;7.392;2022-08-23T16:11:59;10.15;;;5.18;;
23884;SDS011;12123;53.088;7.392;2022-08-23T16:14:26;7.10;;;4.18;;
23884;SDS011;12123;53.088;7.392;2022-08-23T16:16:56;9.52;;;3.25;;
23884;SDS011;12123;53.088;7.392;2022-08-23T16:19:23;4.72;;;2.63;;
23884;SDS011;12123;53.088;7.392;2022-08-23T16:21:52;9.40;;;3.47;;
23884;SDS011;12123;53.088;7.392;2022-08-23T16:24:20;6.28;;;2.60;;
23884;SDS011;12123;53.088;7.392;2022-08-23T16:26:50;6.88;;;2.65;;
23884;SDS011;12123;53.088;7.392;2022-08-23T16:29:18;4.45;;;2.35;;
23884;SDS011;12123;53.088;7.392;2022-08-23T16:31:45;6.65;;;2.70;;
23884;SDS011;12123;53.088;7.392;2022-08-23T16:34:14;3.60;;;2.58;;
23884;SDS011;12123;53.088;7.392;2022-08-23T16:36:43;6.78;;;2.45;;
23884;SDS011;12123;53.088;7.392;2022-08-23T16:39:12;6.00;;;2.60;;
23884;SDS011;12123;53.088;7.392;2022-08-23T16:41:39;3.90;;;2.30;;
23884;SDS011;12123;53.088;7.392;2022-08-23T16:44:07;7.90;;;3.03;;
23884;SDS011;12123;53.088;7.392;2022-08-23T16:46:34;4.55;;;2.47;;